createdAt,value
2022-08-17T00:01:51.504Z,89.88
2022-08-17T00:04:18.972Z,89.67
2022-08-17T00:06:46.067Z,90.35
2022-08-17T00:09:15.402Z,90.26
2022-08-17T00:12:40.660Z,90.02
2022-08-17T00:14:33.416Z,90.27
2022-08-17T00:16:59.770Z,90.36
2022-08-17T00:19:26.658Z,90.24
2022-08-17T00:22:32.352Z,90.22
2022-08-17T00:24:42.928Z,90.54
2022-08-17T00:27:09.279Z,89.74
2022-08-17T00:29:35.673Z,89.98
2022-08-17T00:33:12.571Z,89.78
2022-08-17T00:34:49.701Z,89.43
2022-08-17T00:37:16.175Z,89.35
2022-08-17T00:39:42.601Z,89.47
2022-08-17T00:42:17.872Z,89.74
2022-08-17T00:44:45.016Z,89.40
2022-08-17T00:47:11.387Z,89.08
2022-08-17T00:49:37.777Z,88.92
2022-08-17T00:52:12.015Z,89.20
2022-08-17T00:54:42.398Z,88.78
2022-08-17T00:57:15.050Z,88.64
2022-08-17T00:59:47.096Z,88.85
2022-08-17T01:02:29.911Z,88.76
2022-08-17T01:05:01.129Z,88.80
2022-08-17T01:07:27.725Z,88.54
2022-08-17T01:09:54.821Z,87.47
2022-08-17T01:12:21.442Z,87.15
2022-08-17T01:14:48.287Z,86.54
2022-08-17T01:17:14.687Z,86.34
2022-08-17T01:19:42.440Z,85.95
2022-08-17T01:22:08.730Z,85.50
2022-08-17T01:24:37.262Z,84.30
2022-08-17T01:27:10.466Z,83.61
2022-08-17T01:29:40.731Z,83.38
2022-08-17T01:32:08.146Z,83.12
2022-08-17T01:34:37.360Z,82.76
2022-08-17T01:37:10.912Z,82.47
2022-08-17T01:39:43.897Z,83.17
2022-08-17T01:42:20.947Z,83.19
2022-08-17T01:44:47.351Z,83.83
2022-08-17T01:47:13.718Z,85.34
2022-08-17T01:49:40.177Z,85.64
2022-08-17T01:52:11.461Z,86.53
2022-08-17T01:54:41.174Z,87.80
2022-08-17T01:57:07.741Z,88.43
2022-08-17T01:59:34.138Z,88.21
2022-08-17T02:02:00.748Z,88.26
2022-08-17T02:04:27.222Z,88.23
2022-08-17T02:06:54.678Z,87.66
2022-08-17T02:09:29.907Z,87.65
2022-08-17T02:11:59.511Z,87.15
2022-08-17T02:14:26.526Z,87.20
2022-08-17T02:16:53.706Z,87.32
2022-08-17T02:19:20.422Z,87.84
2022-08-17T02:21:49.095Z,88.35
2022-08-17T02:25:00.095Z,88.76
2022-08-17T02:27:15.383Z,88.34
2022-08-17T02:29:41.747Z,88.62
2022-08-17T02:32:25.311Z,87.80
2022-08-17T02:34:54.877Z,87.78
2022-08-17T02:37:21.315Z,87.74
2022-08-17T02:39:47.781Z,87.73
2022-08-17T02:42:14.975Z,87.84
2022-08-17T02:44:41.535Z,87.91
2022-08-17T02:47:09.688Z,88.13
2022-08-17T02:49:37.064Z,87.55
2022-08-17T02:52:07.809Z,87.91
2022-08-17T02:54:41.353Z,87.54
2022-08-17T02:57:09.805Z,88.15
2022-08-17T02:59:36.547Z,88.39
2022-08-17T03:02:04.581Z,88.41
2022-08-17T03:04:31.181Z,88.25
2022-08-17T03:07:01.328Z,88.20
2022-08-17T03:09:27.717Z,88.10
2022-08-17T03:11:55.968Z,88.59
2022-08-17T03:14:25.965Z,89.21
2022-08-17T03:16:52.608Z,88.90
2022-08-17T03:19:18.968Z,89.00
2022-08-17T03:21:45.343Z,88.63
2022-08-17T03:24:11.716Z,88.38
2022-08-17T03:26:38.065Z,87.60
2022-08-17T03:29:04.416Z,87.37
2022-08-17T03:31:31.396Z,87.13
2022-08-17T03:33:57.765Z,86.43
2022-08-17T03:36:25.239Z,86.05
2022-08-17T03:38:51.662Z,86.92
2022-08-17T03:41:18.030Z,87.00
2022-08-17T03:43:44.399Z,86.58
2022-08-17T03:46:35.209Z,87.26
2022-08-17T03:49:23.441Z,87.36
2022-08-17T03:52:08.858Z,86.87
2022-08-17T03:54:53.587Z,86.51
2022-08-17T03:57:20.409Z,85.70
2022-08-17T03:59:46.894Z,85.56
2022-08-17T04:02:29.986Z,85.89
2022-08-17T04:04:57.156Z,85.94
2022-08-17T04:07:27.406Z,86.37
2022-08-17T04:09:53.759Z,86.02
2022-08-17T04:12:22.182Z,86.69
2022-08-17T04:14:53.270Z,87.00
2022-08-17T04:17:26.374Z,87.59
2022-08-17T04:19:54.143Z,86.83
2022-08-17T04:22:32.479Z,86.52
2022-08-17T04:25:13.582Z,86.37
2022-08-17T04:27:39.923Z,86.67
2022-08-17T04:30:09.395Z,86.76
2022-08-17T04:33:05.011Z,86.27
2022-08-17T04:35:39.691Z,86.17
2022-08-17T04:38:08.017Z,86.30
2022-08-17T04:40:53.394Z,86.24
2022-08-17T04:43:23.222Z,86.54
2022-08-17T04:45:55.810Z,86.45
2022-08-17T04:48:33.352Z,86.40
2022-08-17T04:51:09.512Z,86.59
2022-08-17T04:53:36.006Z,87.44
2022-08-17T04:56:02.845Z,87.37
2022-08-17T04:58:29.391Z,87.76
2022-08-17T05:00:55.797Z,88.02
2022-08-17T05:03:22.203Z,88.00
2022-08-17T05:05:49.706Z,88.26
2022-08-17T05:08:18.924Z,88.41
2022-08-17T05:10:46.042Z,88.35
2022-08-17T05:13:18.040Z,88.29
2022-08-17T05:15:47.926Z,88.44
2022-08-17T05:18:15.660Z,88.40
2022-08-17T05:20:42.648Z,88.63
2022-08-17T05:23:12.177Z,88.74
2022-08-17T05:25:41.431Z,88.85
2022-08-17T05:28:09.323Z,89.10
2022-08-17T05:30:37.059Z,88.94
2022-08-17T05:33:08.478Z,89.25
2022-08-17T05:35:37.392Z,89.28
2022-08-17T05:38:04.650Z,89.23
2022-08-17T05:40:32.891Z,89.04
2022-08-17T05:43:20.632Z,88.51
2022-08-17T05:45:59.814Z,88.84
2022-08-17T05:48:35.642Z,89.22
2022-08-17T05:51:23.707Z,88.87
2022-08-17T05:53:56.154Z,88.80
2022-08-17T05:56:49.957Z,88.63
2022-08-17T05:59:34.477Z,88.45
2022-08-17T06:02:24.600Z,87.94
2022-08-17T06:05:02.756Z,87.74
2022-08-17T06:07:53.693Z,87.37
2022-08-17T06:10:33.926Z,86.99
2022-08-17T06:13:15.818Z,87.15
2022-08-17T06:15:51.612Z,86.24
2022-08-17T06:18:20.369Z,85.90
2022-08-17T06:21:11.682Z,86.56
2022-08-17T06:23:43.438Z,86.55
2022-08-17T06:26:17.588Z,86.18
2022-08-17T06:28:51.548Z,86.20
2022-08-17T06:31:29.024Z,86.22
2022-08-17T06:33:57.764Z,86.29
2022-08-17T06:36:41.216Z,85.47
2022-08-17T06:39:24.453Z,85.10
2022-08-17T06:42:09.471Z,85.16
2022-08-17T06:45:10.329Z,85.19
2022-08-17T06:48:03.804Z,85.66
2022-08-17T06:50:47.896Z,85.55
2022-08-17T06:53:29.386Z,86.51
2022-08-17T06:55:58.514Z,86.13
2022-08-17T06:58:29.762Z,86.38
2022-08-17T07:01:00.887Z,86.05
2022-08-17T07:03:45.984Z,86.68
2022-08-17T07:06:19.844Z,85.78
2022-08-17T07:09:06.116Z,86.17
2022-08-17T07:11:48.973Z,86.30
2022-08-17T07:14:37.885Z,86.18
2022-08-17T07:17:12.043Z,86.69
2022-08-17T07:19:40.989Z,86.67
2022-08-17T07:22:30.375Z,86.30
2022-08-17T07:25:18.664Z,87.27
2022-08-17T07:27:51.437Z,87.27
2022-08-17T07:30:29.706Z,87.31
2022-08-17T07:33:03.785Z,87.59
2022-08-17T07:35:37.623Z,87.49
2022-08-17T07:38:25.700Z,87.33
2022-08-17T07:40:57.577Z,88.76
2022-08-17T07:43:29.527Z,88.99
2022-08-17T07:46:54.104Z,89.96
2022-08-17T07:49:32.292Z,90.55
2022-08-17T07:52:23.886Z,90.63
2022-08-17T07:54:48.937Z,91.39
2022-08-17T07:57:15.242Z,91.89
2022-08-17T08:00:03.337Z,92.15
2022-08-17T08:02:40.301Z,91.97
2022-08-17T08:05:44.326Z,92.30
2022-08-17T08:08:27.938Z,92.37
2022-08-17T08:11:28.227Z,92.35
2022-08-17T08:13:54.618Z,92.02
2022-08-17T08:16:29.439Z,92.13
2022-08-17T08:18:59.476Z,91.77
2022-08-17T08:21:29.087Z,91.21
2022-08-17T08:24:09.560Z,90.38
2022-08-17T08:26:46.345Z,87.69
2022-08-17T08:29:28.183Z,88.87
2022-08-17T08:32:16.272Z,88.09
2022-08-17T08:35:07.157Z,88.45
2022-08-17T08:38:18.622Z,86.36
2022-08-17T08:41:16.895Z,85.25
2022-08-17T08:43:55.309Z,84.81
2022-08-17T08:46:44.097Z,83.94
2022-08-17T08:50:02.998Z,83.73
2022-08-17T08:52:27.971Z,84.76
2022-08-17T08:55:03.865Z,84.26
2022-08-17T08:57:40.267Z,84.11
2022-08-17T09:00:12.776Z,84.82
2022-08-17T09:03:19.069Z,83.91
2022-08-17T09:06:32.585Z,84.39
2022-08-17T09:09:16.596Z,83.76
2022-08-17T09:12:08.783Z,84.07
2022-08-17T09:14:46.603Z,83.59
2022-08-17T09:17:19.223Z,82.88
2022-08-17T09:19:57.651Z,84.35
2022-08-17T09:22:48.639Z,82.67
2022-08-17T09:25:31.668Z,80.96
2022-08-17T09:28:07.706Z,80.45
2022-08-17T09:30:45.420Z,82.50
2022-08-17T09:33:17.561Z,82.57
2022-08-17T09:35:52.470Z,84.14
2022-08-17T09:38:43.455Z,85.72
2022-08-17T09:41:35.465Z,85.78
2022-08-17T09:44:39.152Z,87.48
2022-08-17T09:47:07.455Z,88.82
2022-08-17T09:49:42.692Z,89.21
2022-08-17T09:52:17.829Z,88.85
2022-08-17T09:54:45.548Z,89.21
2022-08-17T09:57:30.380Z,88.54
2022-08-17T10:00:18.595Z,87.25
2022-08-17T10:03:16.111Z,85.66
2022-08-17T10:06:06.861Z,82.80
2022-08-17T10:08:51.789Z,80.95
2022-08-17T10:12:03.484Z,80.99
2022-08-17T10:14:43.864Z,79.78
2022-08-17T10:17:17.045Z,80.51
2022-08-17T10:20:17.628Z,79.61
2022-08-17T10:23:02.603Z,79.00
2022-08-17T10:25:55.270Z,81.05
2022-08-17T10:28:29.711Z,80.15
2022-08-17T10:34:05.290Z,78.47
2022-08-17T10:36:38.410Z,76.35
2022-08-17T10:39:21.100Z,77.94
2022-08-17T10:41:52.800Z,76.45
2022-08-17T10:44:41.073Z,79.20
2022-08-17T10:47:11.700Z,79.36
2022-08-17T10:49:47.288Z,77.37
2022-08-17T10:52:19.469Z,78.36
2022-08-17T10:54:51.819Z,78.62
2022-08-17T10:57:33.833Z,79.24
2022-08-17T11:00:09.697Z,80.03
2022-08-17T11:02:47.839Z,79.26
2022-08-17T11:05:42.987Z,81.76
2022-08-17T11:08:48.067Z,80.68
2022-08-17T11:11:35.815Z,79.71
2022-08-17T11:15:00.296Z,80.73
2022-08-17T11:17:50.294Z,80.24
2022-08-17T11:20:47.286Z,80.17
2022-08-17T11:23:38.315Z,79.91
2022-08-17T11:26:33.397Z,82.92
2022-08-17T11:29:09.371Z,82.66
2022-08-17T11:31:46.469Z,83.29
2022-08-17T11:34:26.171Z,85.11
2022-08-17T11:37:27.336Z,85.93
2022-08-17T11:40:06.418Z,86.99
2022-08-17T11:43:19.425Z,88.70
2022-08-17T11:45:58.043Z,89.02
2022-08-17T11:48:54.576Z,89.67
2022-08-17T11:51:35.829Z,91.11
2022-08-17T11:54:33.190Z,90.93
2022-08-17T11:57:25.927Z,91.89
2022-08-17T11:59:53.891Z,92.01
2022-08-17T12:02:32.606Z,91.54
2022-08-17T12:05:14.599Z,92.17
2022-08-17T12:07:47.820Z,92.54
2022-08-17T12:10:19.038Z,92.27
2022-08-17T12:12:48.204Z,92.73
2022-08-17T12:15:18.918Z,92.93
2022-08-17T12:17:54.187Z,93.61
2022-08-17T12:20:28.288Z,93.39
2022-08-17T12:23:34.036Z,93.39
2022-08-17T12:26:09.854Z,93.44
2022-08-17T12:28:39.125Z,93.30
2022-08-17T12:31:11.805Z,93.15
2022-08-17T12:33:43.814Z,93.23
2022-08-17T12:36:15.156Z,93.41
2022-08-17T12:38:50.800Z,93.41
2022-08-17T12:41:31.371Z,93.64
2022-08-17T12:44:03.633Z,93.88
2022-08-17T12:46:47.449Z,93.55
2022-08-17T12:49:29.872Z,93.48
2022-08-17T12:52:12.492Z,94.00
2022-08-17T12:54:53.611Z,94.22
2022-08-17T12:57:31.154Z,94.14
2022-08-17T13:00:07.611Z,94.49
2022-08-17T13:02:42.679Z,94.56
2022-08-17T13:05:24.998Z,94.21
2022-08-17T13:07:53.303Z,94.20
2022-08-17T13:10:28.617Z,94.71
2022-08-17T13:13:03.278Z,94.82
2022-08-17T13:15:44.985Z,94.74
2022-08-17T13:18:36.297Z,94.66
2022-08-17T13:21:02.890Z,94.92
2022-08-17T13:23:31.285Z,95.34
2022-08-17T13:26:09.305Z,95.10
2022-08-17T13:28:37.399Z,95.07
2022-08-17T13:31:26.155Z,95.26
2022-08-17T13:33:52.528Z,95.22
2022-08-17T13:36:30.332Z,95.59
2022-08-17T13:39:19.115Z,95.44
2022-08-17T13:41:46.724Z,95.51
2022-08-17T13:44:35.067Z,95.39
2022-08-17T13:47:03.613Z,95.62
2022-08-17T13:49:48.230Z,95.37
2022-08-17T13:52:38.943Z,95.38
2022-08-17T13:55:15.720Z,95.22
2022-08-17T13:57:46.816Z,95.14
2022-08-17T14:00:31.571Z,94.90
2022-08-17T14:02:59.627Z,95.11
2022-08-17T14:05:26.415Z,95.24
2022-08-17T14:07:58.630Z,95.56
2022-08-17T14:10:25.931Z,95.35
2022-08-17T14:12:52.859Z,95.07
2022-08-17T14:15:22.455Z,95.14
2022-08-17T14:17:49.441Z,94.96
2022-08-17T14:20:19.310Z,94.58
2022-08-17T14:22:52.361Z,94.74
2022-08-17T14:25:23.165Z,94.82
2022-08-17T14:27:53.036Z,94.34
2022-08-17T14:30:23.111Z,94.64
2022-08-17T14:32:51.699Z,94.84
2022-08-17T14:35:19.128Z,94.65
2022-08-17T14:37:45.761Z,95.19
2022-08-17T14:40:14.162Z,94.58
2022-08-17T14:42:42.747Z,94.40
2022-08-17T14:45:31.874Z,94.33
2022-08-17T14:47:58.143Z,94.15
2022-08-17T14:50:24.540Z,94.28
2022-08-17T14:52:50.977Z,94.50
2022-08-17T14:55:18.258Z,94.23
2022-08-17T14:57:45.253Z,94.13
2022-08-17T15:00:13.172Z,94.33
2022-08-17T15:02:45.791Z,94.22
2022-08-17T15:05:15.261Z,94.20
2022-08-17T15:07:42.256Z,94.30
2022-08-17T15:10:09.024Z,93.74
2022-08-17T15:12:35.739Z,94.67
2022-08-17T15:15:05.442Z,93.91
2022-08-17T15:17:44.617Z,94.63
2022-08-17T15:20:18.903Z,94.74
2022-08-17T15:22:47.010Z,95.06
2022-08-17T15:25:13.987Z,95.04
2022-08-17T15:27:40.583Z,95.04
2022-08-17T15:30:08.761Z,95.33
2022-08-17T15:32:38.038Z,94.65
2022-08-17T15:35:08.742Z,94.95
2022-08-17T15:37:36.258Z,94.70
2022-08-17T15:40:03.035Z,94.63
2022-08-17T15:42:29.525Z,95.13
2022-08-17T15:44:56.057Z,94.09
2022-08-17T15:47:22.898Z,94.33
2022-08-17T15:49:49.262Z,94.06
2022-08-17T15:52:19.010Z,94.17
2022-08-17T15:54:54.652Z,94.46
2022-08-17T15:57:24.008Z,94.29
2022-08-17T15:59:54.007Z,93.69
2022-08-17T16:03:45.757Z,93.80
2022-08-17T16:05:19.013Z,93.82
2022-08-17T16:07:46.627Z,93.75
2022-08-17T16:10:16.741Z,93.89
2022-08-17T16:12:47.237Z,94.35
2022-08-17T16:15:14.242Z,94.37
2022-08-17T16:17:43.691Z,94.75
2022-08-17T16:20:20.067Z,94.68
2022-08-17T16:22:48.932Z,94.08
2022-08-17T16:25:23.126Z,94.32
2022-08-17T16:28:09.471Z,94.38
2022-08-17T16:30:37.377Z,94.29
2022-08-17T16:33:04.157Z,94.89
2022-08-17T16:35:30.763Z,94.82
2022-08-17T16:37:58.731Z,95.56
2022-08-17T16:40:27.388Z,95.07
2022-08-17T16:42:55.473Z,94.47
2022-08-17T16:45:36.687Z,94.65
2022-08-17T16:48:03.875Z,93.97
2022-08-17T16:50:31.691Z,94.43
2022-08-17T16:53:26.517Z,94.53
2022-08-17T16:55:53.126Z,94.54
2022-08-17T16:58:19.975Z,94.27
2022-08-17T17:00:48.639Z,94.49
2022-08-17T17:03:19.615Z,94.75
2022-08-17T17:05:55.265Z,95.02
2022-08-17T17:08:46.639Z,95.14
2022-08-17T17:11:38.079Z,95.08
2022-08-17T17:14:09.375Z,95.28
2022-08-17T17:16:50.266Z,95.36
2022-08-17T17:19:38.136Z,95.21
2022-08-17T17:22:10.428Z,95.24
2022-08-17T17:24:51.508Z,95.08
2022-08-17T17:27:48.629Z,95.53
2022-08-17T17:30:24.156Z,95.42
2022-08-17T17:33:04.291Z,95.65
2022-08-17T17:36:06.798Z,95.30
2022-08-17T17:38:42.886Z,95.73
2022-08-17T17:41:25.357Z,95.51
2022-08-17T17:44:01.689Z,95.51
2022-08-17T17:46:37.840Z,96.02
2022-08-17T17:49:05.936Z,95.84
2022-08-17T17:52:06.361Z,96.15
2022-08-17T17:54:49.434Z,96.40
2022-08-17T17:57:29.519Z,96.43
2022-08-17T18:00:09.915Z,96.33
2022-08-17T18:02:52.100Z,96.79
2022-08-17T18:05:53.888Z,96.77
2022-08-17T18:08:46.402Z,96.68
2022-08-17T18:11:26.447Z,96.99
2022-08-17T18:14:20.206Z,97.13
2022-08-17T18:16:54.920Z,97.29
2022-08-17T18:19:25.050Z,97.31
2022-08-17T18:21:56.763Z,97.54
2022-08-17T18:24:35.754Z,97.89
2022-08-17T18:27:19.049Z,98.05
2022-08-17T18:29:47.546Z,98.14
2022-08-17T18:32:31.304Z,98.08
2022-08-17T18:35:10.111Z,98.42
2022-08-17T18:37:44.882Z,98.10
2022-08-17T18:40:35.101Z,98.43
2022-08-17T18:43:06.503Z,98.48
2022-08-17T18:45:45.939Z,98.58
2022-08-17T18:48:32.983Z,98.35
2022-08-17T18:51:26.318Z,98.59
2022-08-17T18:54:23.192Z,98.58
2022-08-17T18:56:57.709Z,98.48
2022-08-17T18:59:33.427Z,98.72
2022-08-17T19:02:08.935Z,98.85
2022-08-17T19:04:56.080Z,98.78
2022-08-17T19:07:23.142Z,98.60
2022-08-17T19:10:08.943Z,98.80
2022-08-17T19:12:43.595Z,98.92
2022-08-17T19:15:14.739Z,98.87
2022-08-17T19:17:44.585Z,99.15
2022-08-17T19:20:27.653Z,99.25
2022-08-17T19:23:10.095Z,99.18
2022-08-17T19:25:46.300Z,99.27
2022-08-17T19:28:22.287Z,99.30
2022-08-17T19:30:54.596Z,99.21
2022-08-17T19:33:21.317Z,99.36
2022-08-17T19:36:12.684Z,99.54
2022-08-17T19:38:52.911Z,99.72
2022-08-17T19:41:44.313Z,99.78
2022-08-17T19:44:41.629Z,99.81
2022-08-17T19:47:54.297Z,99.86
2022-08-17T19:50:41.395Z,99.77
2022-08-17T19:53:19.496Z,99.75
2022-08-17T19:56:23.662Z,100.00
2022-08-17T19:59:13.274Z,99.97
2022-08-17T20:01:53.519Z,99.94
2022-08-17T20:04:47.047Z,100.00
2022-08-17T20:07:29.193Z,100.00
2022-08-17T20:10:11.890Z,100.00
2022-08-17T20:12:41.015Z,100.00
2022-08-17T20:15:12.260Z,100.00
2022-08-17T20:17:43.364Z,100.00
2022-08-17T20:20:30.925Z,100.00
2022-08-17T20:23:28.675Z,100.00
2022-08-17T20:26:19.130Z,100.00
2022-08-17T20:29:07.759Z,100.00
2022-08-17T20:31:55.896Z,100.00
2022-08-17T20:34:25.307Z,100.00
2022-08-17T20:37:05.897Z,100.00
2022-08-17T20:39:37.931Z,100.00
2022-08-17T20:42:19.531Z,100.00
2022-08-17T20:44:48.151Z,100.00
2022-08-17T20:47:27.009Z,100.00
2022-08-17T20:50:01.108Z,100.00
2022-08-17T20:52:48.635Z,100.00
2022-08-17T20:55:33.801Z,100.00
2022-08-17T20:58:15.572Z,100.00
2022-08-17T21:00:46.891Z,100.00
2022-08-17T21:03:28.611Z,100.00
2022-08-17T21:06:18.274Z,100.00
2022-08-17T21:08:58.632Z,100.00
2022-08-17T21:12:02.522Z,100.00
2022-08-17T21:14:21.704Z,100.00
2022-08-17T21:16:59.795Z,100.00
2022-08-17T21:20:00.501Z,100.00
2022-08-17T21:22:47.782Z,100.00
2022-08-17T21:25:51.918Z,100.00
2022-08-17T21:28:30.099Z,100.00
2022-08-17T21:31:08.208Z,100.00
2022-08-17T21:33:39.097Z,100.00
2022-08-17T21:36:11.699Z,100.00
2022-08-17T21:38:42.319Z,100.00
2022-08-17T21:41:20.626Z,100.00
2022-08-17T21:43:50.808Z,100.00
2022-08-17T21:46:34.271Z,100.00
2022-08-17T21:49:13.608Z,100.00
2022-08-17T21:51:45.731Z,100.00
2022-08-17T21:54:26.055Z,100.00
2022-08-17T21:56:53.422Z,100.00
2022-08-17T21:59:28.955Z,100.00
2022-08-17T22:01:59.877Z,100.00
2022-08-17T22:04:30.456Z,100.00
2022-08-17T22:06:59.392Z,100.00
2022-08-17T22:09:32.735Z,100.00
2022-08-17T22:12:04.511Z,100.00
2022-08-17T22:14:52.979Z,100.00
2022-08-17T22:17:28.281Z,100.00
2022-08-17T22:20:09.563Z,100.00
2022-08-17T22:23:19.604Z,100.00
2022-08-17T22:26:04.437Z,100.00
2022-08-17T22:28:52.731Z,100.00
2022-08-17T22:31:24.108Z,100.00
2022-08-17T22:34:01.482Z,100.00
2022-08-17T22:36:39.322Z,100.00
2022-08-17T22:39:08.398Z,100.00
2022-08-17T22:41:42.402Z,100.00
2022-08-17T22:44:29.400Z,100.00
2022-08-17T22:47:23.963Z,100.00
2022-08-17T22:49:57.729Z,100.00
2022-08-17T22:53:37.011Z,100.00
2022-08-17T22:56:22.767Z,100.00
2022-08-17T22:59:12.477Z,100.00
2022-08-17T23:01:39.891Z,100.00
2022-08-17T23:04:10.296Z,100.00
2022-08-17T23:06:39.011Z,100.00
2022-08-17T23:09:06.881Z,100.00
2022-08-17T23:11:48.571Z,100.00
2022-08-17T23:14:18.961Z,100.00
2022-08-17T23:16:45.916Z,100.00
2022-08-17T23:19:15.361Z,100.00
2022-08-17T23:21:44.703Z,100.00
2022-08-17T23:24:16.943Z,100.00
2022-08-17T23:26:43.337Z,100.00
2022-08-17T23:29:09.934Z,100.00
2022-08-17T23:31:38.706Z,100.00
2022-08-17T23:34:09.285Z,100.00
2022-08-17T23:36:36.224Z,100.00
2022-08-17T23:39:04.268Z,100.00
2022-08-17T23:41:36.242Z,100.00
2022-08-17T23:44:05.560Z,100.00
2022-08-17T23:46:32.724Z,100.00
2022-08-17T23:49:00.287Z,100.00
2022-08-17T23:51:31.495Z,100.00
2022-08-17T23:54:07.965Z,100.00
2022-08-17T23:56:40.035Z,100.00
2022-08-17T23:59:06.402Z,100.00
